sensor_id;sensor_type;location;lat;lon;timestamp;pressure;altitude;pressure_sealevel;temperature;humidity
16664;BME280;8445;51.270;9.434;2022-10-31T00:00:20;99929.91;;;12.79;76.26
16664;BME280;8445;51.270;9.434;2022-10-31T00:02:46;99930.63;;;12.81;76.54
16664;BME280;8445;51.270;9.434;2022-10-31T00:05:12;99927.59;;;12.86;77.65
16664;BME280;8445;51.270;9.434;2022-10-31T00:07:38;99931.72;;;12.90;76.46
16664;BME280;8445;51.270;9.434;2022-10-31T00:10:05;99927.28;;;12.90;75.98
16664;BME280;8445;51.270;9.434;2022-10-31T00:12:31;99930.50;;;12.83;76.30
16664;BME280;8445;51.270;9.434;2022-10-31T00:14:56;99933.75;;;12.75;76.11
16664;BME280;8445;51.270;9.434;2022-10-31T00:17:22;99933.47;;;12.67;76.99
16664;BME280;8445;51.270;9.434;2022-10-31T00:19:48;99941.06;;;12.60;75.99
16664;BME280;8445;51.270;9.434;2022-10-31T00:22:14;99950.28;;;12.43;75.82
16664;BME280;8445;51.270;9.434;2022-10-31T00:24:42;99953.75;;;12.32;76.01
16664;BME280;8445;51.270;9.434;2022-10-31T00:27:11;99948.56;;;12.30;75.95
16664;BME280;8445;51.270;9.434;2022-10-31T00:29:43;99952.13;;;12.18;77.84
16664;BME280;8445;51.270;9.434;2022-10-31T00:32:13;99950.66;;;12.14;76.76
16664;BME280;8445;51.270;9.434;2022-10-31T00:34:42;99959.78;;;12.10;76.54
16664;BME280;8445;51.270;9.434;2022-10-31T00:37:08;99957.50;;;12.05;78.50
16664;BME280;8445;51.270;9.434;2022-10-31T00:39:34;99962.66;;;12.07;78.02
16664;BME280;8445;51.270;9.434;2022-10-31T00:42:00;99965.00;;;11.98;76.91
16664;BME280;8445;51.270;9.434;2022-10-31T00:44:26;99965.94;;;11.97;77.46
16664;BME280;8445;51.270;9.434;2022-10-31T00:46:52;99975.28;;;11.90;76.92
16664;BME280;8445;51.270;9.434;2022-10-31T00:49:21;99981.72;;;11.75;76.65
16664;BME280;8445;51.270;9.434;2022-10-31T00:51:46;99979.19;;;11.60;77.14
16664;BME280;8445;51.270;9.434;2022-10-31T00:54:12;99972.94;;;11.48;76.93
16664;BME280;8445;51.270;9.434;2022-10-31T00:56:38;99978.78;;;11.40;77.50
16664;BME280;8445;51.270;9.434;2022-10-31T00:59:04;99970.53;;;11.32;78.93
16664;BME280;8445;51.270;9.434;2022-10-31T01:01:30;99985.47;;;11.33;78.67
16664;BME280;8445;51.270;9.434;2022-10-31T01:03:56;99977.72;;;11.30;78.88
16664;BME280;8445;51.270;9.434;2022-10-31T01:06:22;99990.44;;;11.25;80.17
16664;BME280;8445;51.270;9.434;2022-10-31T01:08:51;99977.53;;;11.20;78.88
16664;BME280;8445;51.270;9.434;2022-10-31T01:11:23;99989.19;;;11.18;82.81
16664;BME280;8445;51.270;9.434;2022-10-31T01:13:54;99975.44;;;11.12;79.13
16664;BME280;8445;51.270;9.434;2022-10-31T01:16:27;99982.41;;;11.14;81.33
16664;BME280;8445;51.270;9.434;2022-10-31T01:18:58;99979.78;;;11.14;78.92
16664;BME280;8445;51.270;9.434;2022-10-31T01:21:28;99990.66;;;11.22;79.01
16664;BME280;8445;51.270;9.434;2022-10-31T01:23:58;99986.31;;;11.21;78.22
16664;BME280;8445;51.270;9.434;2022-10-31T01:26:27;99984.53;;;11.08;77.76
16664;BME280;8445;51.270;9.434;2022-10-31T01:29:07;99980.47;;;11.03;78.48
16664;BME280;8445;51.270;9.434;2022-10-31T01:31:38;99983.13;;;11.03;78.54
16664;BME280;8445;51.270;9.434;2022-10-31T01:34:04;99979.13;;;10.97;77.96
16664;BME280;8445;51.270;9.434;2022-10-31T01:36:34;99992.75;;;10.91;78.40
16664;BME280;8445;51.270;9.434;2022-10-31T01:39:06;99988.09;;;10.81;78.24
16664;BME280;8445;51.270;9.434;2022-10-31T01:41:42;99985.44;;;10.81;78.30
16664;BME280;8445;51.270;9.434;2022-10-31T01:47:16;99981.44;;;10.89;80.16
16664;BME280;8445;51.270;9.434;2022-10-31T01:49:51;99982.59;;;10.85;79.10
16664;BME280;8445;51.270;9.434;2022-10-31T01:52:28;99975.41;;;10.87;79.62
16664;BME280;8445;51.270;9.434;2022-10-31T01:57:36;99994.84;;;10.73;78.72
16664;BME280;8445;51.270;9.434;2022-10-31T02:00:12;99993.66;;;10.64;78.84
16664;BME280;8445;51.270;9.434;2022-10-31T02:02:41;99992.69;;;10.52;78.80
16664;BME280;8445;51.270;9.434;2022-10-31T02:05:16;99993.06;;;10.46;79.65
16664;BME280;8445;51.270;9.434;2022-10-31T02:08:13;99990.91;;;10.38;81.49
16664;BME280;8445;51.270;9.434;2022-10-31T02:10:42;99996.91;;;10.27;79.44
16664;BME280;8445;51.270;9.434;2022-10-31T02:13:11;100001.25;;;10.28;79.71
16664;BME280;8445;51.270;9.434;2022-10-31T02:15:47;100003.78;;;10.30;79.74
16664;BME280;8445;51.270;9.434;2022-10-31T02:18:16;100005.47;;;10.31;79.42
16664;BME280;8445;51.270;9.434;2022-10-31T02:23:52;99996.78;;;10.43;81.57
16664;BME280;8445;51.270;9.434;2022-10-31T02:38:38;99987.84;;;10.59;81.83
16664;BME280;8445;51.270;9.434;2022-10-31T02:41:35;99997.34;;;10.48;81.99
16664;BME280;8445;51.270;9.434;2022-10-31T02:44:38;99999.88;;;10.35;81.84
16664;BME280;8445;51.270;9.434;2022-10-31T02:47:22;99991.91;;;10.22;82.02
16664;BME280;8445;51.270;9.434;2022-10-31T02:50:04;99994.56;;;10.22;81.04
16664;BME280;8445;51.270;9.434;2022-10-31T02:52:34;99985.88;;;10.20;80.19
16664;BME280;8445;51.270;9.434;2022-10-31T02:58:13;99992.47;;;10.28;81.97
16664;BME280;8445;51.270;9.434;2022-10-31T03:01:39;100000.94;;;10.33;83.63
16664;BME280;8445;51.270;9.434;2022-10-31T03:04:39;99998.06;;;10.23;82.57
16664;BME280;8445;51.270;9.434;2022-10-31T03:16:23;100004.53;;;9.90;83.04
16664;BME280;8445;51.270;9.434;2022-10-31T03:19:10;99996.53;;;9.91;82.80
16664;BME280;8445;51.270;9.434;2022-10-31T03:21:52;99996.03;;;9.85;82.44
16664;BME280;8445;51.270;9.434;2022-10-31T03:24:26;99999.47;;;9.72;81.33
16664;BME280;8445;51.270;9.434;2022-10-31T03:26:57;99999.50;;;9.58;80.74
16664;BME280;8445;51.270;9.434;2022-10-31T03:29:30;99998.06;;;9.52;82.12
16664;BME280;8445;51.270;9.434;2022-10-31T03:32:17;100001.00;;;9.47;82.84
16664;BME280;8445;51.270;9.434;2022-10-31T03:34:47;99995.81;;;9.31;80.45
16664;BME280;8445;51.270;9.434;2022-10-31T03:37:19;100009.97;;;9.30;80.56
16664;BME280;8445;51.270;9.434;2022-10-31T03:39:49;100012.59;;;9.30;80.85
16664;BME280;8445;51.270;9.434;2022-10-31T03:42:29;100012.31;;;9.35;82.10
16664;BME280;8445;51.270;9.434;2022-10-31T03:45:20;100014.69;;;9.40;83.77
16664;BME280;8445;51.270;9.434;2022-10-31T03:47:48;100018.06;;;9.42;82.68
16664;BME280;8445;51.270;9.434;2022-10-31T03:50:16;100006.94;;;9.51;82.97
16664;BME280;8445;51.270;9.434;2022-10-31T03:55:21;100020.50;;;9.74;86.65
16664;BME280;8445;51.270;9.434;2022-10-31T03:58:12;100021.06;;;9.79;85.76
16664;BME280;8445;51.270;9.434;2022-10-31T04:00:47;100017.88;;;9.74;83.25
16664;BME280;8445;51.270;9.434;2022-10-31T04:03:24;100023.16;;;9.74;82.55
16664;BME280;8445;51.270;9.434;2022-10-31T04:05:55;100023.16;;;9.74;82.03
16664;BME280;8445;51.270;9.434;2022-10-31T04:08:30;100020.69;;;9.85;83.75
16664;BME280;8445;51.270;9.434;2022-10-31T04:11:00;100028.81;;;9.82;82.11
16664;BME280;8445;51.270;9.434;2022-10-31T04:13:31;100021.47;;;9.73;82.42
16664;BME280;8445;51.270;9.434;2022-10-31T04:16:05;100007.88;;;9.64;81.73
16664;BME280;8445;51.270;9.434;2022-10-31T04:18:32;100002.97;;;9.58;81.42
16664;BME280;8445;51.270;9.434;2022-10-31T04:21:07;100006.94;;;9.66;83.64
16664;BME280;8445;51.270;9.434;2022-10-31T04:23:35;100010.63;;;9.63;81.61
16664;BME280;8445;51.270;9.434;2022-10-31T04:26:12;100018.91;;;9.57;82.07
16664;BME280;8445;51.270;9.434;2022-10-31T04:28:38;100022.59;;;9.54;81.67
16664;BME280;8445;51.270;9.434;2022-10-31T04:31:05;100019.88;;;9.56;82.14
16664;BME280;8445;51.270;9.434;2022-10-31T04:33:34;100027.69;;;9.57;81.93
16664;BME280;8445;51.270;9.434;2022-10-31T04:36:01;100023.72;;;9.64;82.26
16664;BME280;8445;51.270;9.434;2022-10-31T04:38:27;100019.94;;;9.69;82.54
16664;BME280;8445;51.270;9.434;2022-10-31T04:40:53;100017.75;;;9.75;82.88
16664;BME280;8445;51.270;9.434;2022-10-31T04:43:38;100016.53;;;9.81;82.73
16664;BME280;8445;51.270;9.434;2022-10-31T04:46:04;100019.00;;;9.84;82.67
16664;BME280;8445;51.270;9.434;2022-10-31T04:48:31;100011.81;;;9.86;82.85
16664;BME280;8445;51.270;9.434;2022-10-31T04:51:01;100018.41;;;9.93;84.13
16664;BME280;8445;51.270;9.434;2022-10-31T04:53:28;100013.34;;;9.90;82.71
16664;BME280;8445;51.270;9.434;2022-10-31T04:56:16;100011.72;;;9.88;82.70
16664;BME280;8445;51.270;9.434;2022-10-31T04:58:45;100013.34;;;9.76;83.03
16664;BME280;8445;51.270;9.434;2022-10-31T05:01:12;100009.56;;;9.66;82.28
16664;BME280;8445;51.270;9.434;2022-10-31T05:03:38;100011.66;;;9.60;82.97
16664;BME280;8445;51.270;9.434;2022-10-31T05:06:06;100005.91;;;9.54;82.82
16664;BME280;8445;51.270;9.434;2022-10-31T05:08:32;100015.59;;;9.53;82.05
16664;BME280;8445;51.270;9.434;2022-10-31T05:11:03;100011.63;;;9.46;82.36
16664;BME280;8445;51.270;9.434;2022-10-31T05:13:29;100006.00;;;9.38;81.85
16664;BME280;8445;51.270;9.434;2022-10-31T05:16:13;100015.06;;;9.33;83.40
16664;BME280;8445;51.270;9.434;2022-10-31T05:19:05;100012.09;;;9.24;82.80
16664;BME280;8445;51.270;9.434;2022-10-31T05:22:03;100002.00;;;9.16;82.91
16664;BME280;8445;51.270;9.434;2022-10-31T05:24:31;100005.19;;;9.07;82.73
16664;BME280;8445;51.270;9.434;2022-10-31T05:26:57;100006.31;;;9.02;82.42
16664;BME280;8445;51.270;9.434;2022-10-31T05:29:23;100001.22;;;8.99;83.12
16664;BME280;8445;51.270;9.434;2022-10-31T05:31:49;100005.16;;;8.92;82.27
16664;BME280;8445;51.270;9.434;2022-10-31T05:34:35;100013.25;;;8.89;82.72
16664;BME280;8445;51.270;9.434;2022-10-31T05:37:14;100017.78;;;8.87;83.58
16664;BME280;8445;51.270;9.434;2022-10-31T05:39:41;100007.22;;;8.87;83.32
16664;BME280;8445;51.270;9.434;2022-10-31T05:42:12;100011.47;;;8.89;83.08
16664;BME280;8445;51.270;9.434;2022-10-31T05:44:39;100017.16;;;8.98;83.05
16664;BME280;8445;51.270;9.434;2022-10-31T05:47:16;100007.38;;;9.00;83.46
16664;BME280;8445;51.270;9.434;2022-10-31T05:50:09;100000.38;;;8.99;82.60
16664;BME280;8445;51.270;9.434;2022-10-31T05:53:05;100002.16;;;8.98;84.04
16664;BME280;8445;51.270;9.434;2022-10-31T05:55:35;100009.09;;;8.85;83.51
16664;BME280;8445;51.270;9.434;2022-10-31T05:58:13;100011.00;;;8.83;82.91
16664;BME280;8445;51.270;9.434;2022-10-31T06:00:43;100007.50;;;8.82;83.32
16664;BME280;8445;51.270;9.434;2022-10-31T06:03:10;100014.19;;;8.88;82.94
16664;BME280;8445;51.270;9.434;2022-10-31T06:05:47;100011.47;;;8.89;83.15
16664;BME280;8445;51.270;9.434;2022-10-31T06:08:13;100007.22;;;8.87;82.47
16664;BME280;8445;51.270;9.434;2022-10-31T06:10:40;100007.22;;;8.87;82.42
16664;BME280;8445;51.270;9.434;2022-10-31T06:13:06;100013.72;;;8.81;82.69
16664;BME280;8445;51.270;9.434;2022-10-31T06:15:49;100017.56;;;8.75;82.72
16664;BME280;8445;51.270;9.434;2022-10-31T06:18:19;100009.66;;;8.75;82.93
16664;BME280;8445;51.270;9.434;2022-10-31T06:20:47;100007.28;;;8.71;82.93
16664;BME280;8445;51.270;9.434;2022-10-31T06:23:13;100015.88;;;8.74;82.76
16664;BME280;8445;51.270;9.434;2022-10-31T06:25:42;100021.91;;;8.77;82.90
16664;BME280;8445;51.270;9.434;2022-10-31T06:28:09;100020.97;;;8.78;83.36
16664;BME280;8445;51.270;9.434;2022-10-31T06:30:46;100015.41;;;8.82;83.18
16664;BME280;8445;51.270;9.434;2022-10-31T06:33:12;100021.56;;;8.83;83.32
16664;BME280;8445;51.270;9.434;2022-10-31T06:35:47;100020.34;;;8.88;83.95
16664;BME280;8445;51.270;9.434;2022-10-31T06:38:14;100021.00;;;8.92;83.43
16664;BME280;8445;51.270;9.434;2022-10-31T06:40:41;100016.97;;;9.01;83.00
16664;BME280;8445;51.270;9.434;2022-10-31T06:43:21;100023.50;;;9.10;83.39
16664;BME280;8445;51.270;9.434;2022-10-31T06:45:47;100018.97;;;9.12;83.52
16664;BME280;8445;51.270;9.434;2022-10-31T06:48:21;100036.41;;;9.14;83.84
16664;BME280;8445;51.270;9.434;2022-10-31T06:51:19;100035.03;;;9.23;84.35
16664;BME280;8445;51.270;9.434;2022-10-31T06:53:48;100038.25;;;9.28;84.08
16664;BME280;8445;51.270;9.434;2022-10-31T06:56:19;100032.47;;;9.36;84.27
16664;BME280;8445;51.270;9.434;2022-10-31T06:58:50;100033.91;;;9.42;84.15
16664;BME280;8445;51.270;9.434;2022-10-31T07:01:21;100043.13;;;9.49;84.30
16664;BME280;8445;51.270;9.434;2022-10-31T07:03:47;100036.72;;;9.53;84.57
16664;BME280;8445;51.270;9.434;2022-10-31T07:06:13;100040.63;;;9.62;83.90
16664;BME280;8445;51.270;9.434;2022-10-31T07:08:39;100039.31;;;9.69;84.01
16664;BME280;8445;51.270;9.434;2022-10-31T07:11:06;100023.16;;;9.74;83.85
16664;BME280;8445;51.270;9.434;2022-10-31T07:13:33;100029.84;;;9.79;84.04
16664;BME280;8445;51.270;9.434;2022-10-31T07:16:08;100023.16;;;9.88;83.84
16664;BME280;8445;51.270;9.434;2022-10-31T07:18:37;100023.31;;;10.00;85.98
16664;BME280;8445;51.270;9.434;2022-10-31T07:21:04;100015.53;;;10.11;84.98
16664;BME280;8445;51.270;9.434;2022-10-31T07:23:31;100030.81;;;10.20;86.00
16664;BME280;8445;51.270;9.434;2022-10-31T07:26:16;100037.00;;;10.34;85.63
16664;BME280;8445;51.270;9.434;2022-10-31T07:28:48;100027.78;;;10.41;85.56
16664;BME280;8445;51.270;9.434;2022-10-31T07:31:16;100029.28;;;10.45;84.53
16664;BME280;8445;51.270;9.434;2022-10-31T07:33:42;100031.72;;;10.48;84.37
16664;BME280;8445;51.270;9.434;2022-10-31T07:36:27;100028.75;;;10.53;84.73
16664;BME280;8445;51.270;9.434;2022-10-31T07:38:56;100026.56;;;10.60;85.20
16664;BME280;8445;51.270;9.434;2022-10-31T07:41:24;100027.66;;;10.70;85.17
16664;BME280;8445;51.270;9.434;2022-10-31T07:43:50;100030.84;;;10.75;84.73
16664;BME280;8445;51.270;9.434;2022-10-31T07:46:16;100032.31;;;10.79;85.17
16664;BME280;8445;51.270;9.434;2022-10-31T07:48:42;100021.66;;;10.81;85.14
16664;BME280;8445;51.270;9.434;2022-10-31T07:51:26;100034.03;;;10.93;86.03
16664;BME280;8445;51.270;9.434;2022-10-31T07:53:55;100034.91;;;11.07;84.98
16664;BME280;8445;51.270;9.434;2022-10-31T07:56:24;100026.28;;;11.18;86.32
16664;BME280;8445;51.270;9.434;2022-10-31T07:58:51;100022.75;;;11.30;85.62
16664;BME280;8445;51.270;9.434;2022-10-31T08:01:18;100034.75;;;11.49;85.57
16664;BME280;8445;51.270;9.434;2022-10-31T08:03:54;100039.63;;;11.55;86.03
16664;BME280;8445;51.270;9.434;2022-10-31T08:06:59;100033.78;;;11.76;85.65
16664;BME280;8445;51.270;9.434;2022-10-31T08:09:30;100033.00;;;11.86;86.06
16664;BME280;8445;51.270;9.434;2022-10-31T08:11:59;100032.34;;;11.96;85.61
16664;BME280;8445;51.270;9.434;2022-10-31T08:14:25;100035.97;;;12.08;85.85
16664;BME280;8445;51.270;9.434;2022-10-31T08:16:53;100026.38;;;12.18;85.49
16664;BME280;8445;51.270;9.434;2022-10-31T08:19:19;100027.41;;;12.28;84.82
16664;BME280;8445;51.270;9.434;2022-10-31T08:21:46;100021.53;;;12.36;84.54
16664;BME280;8445;51.270;9.434;2022-10-31T08:24:12;100022.44;;;12.48;84.46
16664;BME280;8445;51.270;9.434;2022-10-31T08:26:39;100018.13;;;12.58;84.35
16664;BME280;8445;51.270;9.434;2022-10-31T08:29:07;100021.91;;;12.67;84.40
16664;BME280;8445;51.270;9.434;2022-10-31T08:31:35;100031.63;;;12.80;84.39
16664;BME280;8445;51.270;9.434;2022-10-31T08:34:20;100029.97;;;12.90;84.83
16664;BME280;8445;51.270;9.434;2022-10-31T08:37:05;100024.56;;;13.03;84.73
16664;BME280;8445;51.270;9.434;2022-10-31T08:39:39;100039.69;;;13.14;84.73
16664;BME280;8445;51.270;9.434;2022-10-31T08:42:05;100025.59;;;13.25;84.38
16664;BME280;8445;51.270;9.434;2022-10-31T08:44:31;100025.13;;;13.31;84.34
16664;BME280;8445;51.270;9.434;2022-10-31T08:46:57;100020.28;;;13.36;84.40
16664;BME280;8445;51.270;9.434;2022-10-31T08:49:23;100016.00;;;13.46;84.22
16664;BME280;8445;51.270;9.434;2022-10-31T08:51:49;100020.69;;;13.54;84.16
16664;BME280;8445;51.270;9.434;2022-10-31T08:54:15;100017.66;;;13.59;83.95
16664;BME280;8445;51.270;9.434;2022-10-31T08:57:04;100018.28;;;13.62;83.77
16664;BME280;8445;51.270;9.434;2022-10-31T08:59:39;100013.06;;;13.72;83.82
16664;BME280;8445;51.270;9.434;2022-10-31T09:02:40;100019.75;;;13.78;83.60
16664;BME280;8445;51.270;9.434;2022-10-31T09:05:06;100020.34;;;13.82;84.52
16664;BME280;8445;51.270;9.434;2022-10-31T09:07:33;100017.44;;;13.96;84.31
16664;BME280;8445;51.270;9.434;2022-10-31T09:09:59;100014.03;;;14.05;84.46
16664;BME280;8445;51.270;9.434;2022-10-31T09:12:29;100007.34;;;14.11;84.24
16664;BME280;8445;51.270;9.434;2022-10-31T09:15:13;100004.66;;;14.22;83.86
16664;BME280;8445;51.270;9.434;2022-10-31T09:17:50;100007.41;;;14.32;84.34
16664;BME280;8445;51.270;9.434;2022-10-31T09:20:25;100011.28;;;14.40;84.06
16664;BME280;8445;51.270;9.434;2022-10-31T09:23:08;100008.06;;;14.57;82.70
16664;BME280;8445;51.270;9.434;2022-10-31T09:25:37;100001.38;;;14.63;82.85
16664;BME280;8445;51.270;9.434;2022-10-31T09:28:39;99995.78;;;14.66;82.49
16664;BME280;8445;51.270;9.434;2022-10-31T09:31:10;100000.03;;;14.68;82.19
16664;BME280;8445;51.270;9.434;2022-10-31T09:33:55;100000.50;;;14.74;82.37
16664;BME280;8445;51.270;9.434;2022-10-31T09:36:38;99997.34;;;14.80;82.17
16664;BME280;8445;51.270;9.434;2022-10-31T09:39:07;99999.81;;;14.72;83.17
16664;BME280;8445;51.270;9.434;2022-10-31T09:42:24;99993.63;;;14.92;81.55
16664;BME280;8445;51.270;9.434;2022-10-31T09:51:08;99986.09;;;15.19;79.21
16664;BME280;8445;51.270;9.434;2022-10-31T09:53:54;99987.66;;;15.21;80.20
16664;BME280;8445;51.270;9.434;2022-10-31T09:56:25;99990.78;;;15.26;81.80
16664;BME280;8445;51.270;9.434;2022-10-31T09:58:59;99984.47;;;15.27;78.96
16664;BME280;8445;51.270;9.434;2022-10-31T10:01:32;99983.38;;;15.40;78.99
16664;BME280;8445;51.270;9.434;2022-10-31T10:04:28;99985.59;;;15.56;76.41
16664;BME280;8445;51.270;9.434;2022-10-31T10:07:40;99978.03;;;15.71;76.00
16664;BME280;8445;51.270;9.434;2022-10-31T10:10:51;99971.31;;;15.77;78.03
16664;BME280;8445;51.270;9.434;2022-10-31T10:23:28;99962.59;;;16.15;74.54
16664;BME280;8445;51.270;9.434;2022-10-31T10:26:23;99960.47;;;16.19;78.30
16664;BME280;8445;51.270;9.434;2022-10-31T10:28:58;99959.63;;;16.19;77.30
16664;BME280;8445;51.270;9.434;2022-10-31T10:31:36;99954.28;;;16.28;77.92
16664;BME280;8445;51.270;9.434;2022-10-31T10:34:22;99954.75;;;16.43;75.82
16664;BME280;8445;51.270;9.434;2022-10-31T10:37:13;99947.00;;;16.50;76.90
16664;BME280;8445;51.270;9.434;2022-10-31T10:39:51;99945.16;;;16.51;77.83
16664;BME280;8445;51.270;9.434;2022-10-31T10:42:20;99941.81;;;16.58;77.95
16664;BME280;8445;51.270;9.434;2022-10-31T10:45:19;99933.63;;;16.70;75.19
16664;BME280;8445;51.270;9.434;2022-10-31T10:51:15;99926.25;;;16.92;76.69
16664;BME280;8445;51.270;9.434;2022-10-31T10:56:54;99921.50;;;16.95;76.77
16664;BME280;8445;51.270;9.434;2022-10-31T10:59:22;99918.81;;;16.95;78.18
16664;BME280;8445;51.270;9.434;2022-10-31T11:01:51;99916.16;;;16.95;78.18
16664;BME280;8445;51.270;9.434;2022-10-31T11:04:33;99909.66;;;17.08;76.22
16664;BME280;8445;51.270;9.434;2022-10-31T11:07:07;99910.34;;;17.10;76.35
16664;BME280;8445;51.270;9.434;2022-10-31T11:09:35;99910.75;;;17.15;77.28
16664;BME280;8445;51.270;9.434;2022-10-31T11:12:10;99910.88;;;17.23;76.61
16664;BME280;8445;51.270;9.434;2022-10-31T11:15:18;99900.28;;;17.31;75.88
16664;BME280;8445;51.270;9.434;2022-10-31T11:20:33;99895.78;;;17.32;75.72
16664;BME280;8445;51.270;9.434;2022-10-31T11:23:21;99897.72;;;17.40;75.91
16664;BME280;8445;51.270;9.434;2022-10-31T11:25:56;99884.19;;;17.41;76.09
16664;BME280;8445;51.270;9.434;2022-10-31T11:28:23;99889.78;;;17.48;78.06
16664;BME280;8445;51.270;9.434;2022-10-31T11:30:59;99888.59;;;17.60;74.74
16664;BME280;8445;51.270;9.434;2022-10-31T11:33:32;99882.31;;;17.70;75.47
16664;BME280;8445;51.270;9.434;2022-10-31T11:36:01;99868.34;;;17.76;77.40
16664;BME280;8445;51.270;9.434;2022-10-31T11:38:39;99862.78;;;17.87;75.02
16664;BME280;8445;51.270;9.434;2022-10-31T11:41:19;99868.03;;;17.97;74.68
16664;BME280;8445;51.270;9.434;2022-10-31T11:44:17;99871.38;;;18.09;72.34
16664;BME280;8445;51.270;9.434;2022-10-31T11:46:54;99861.97;;;18.05;70.87
16664;BME280;8445;51.270;9.434;2022-10-31T11:49:37;99859.06;;;18.16;73.08
16664;BME280;8445;51.270;9.434;2022-10-31T11:52:15;99859.44;;;18.21;75.27
16664;BME280;8445;51.270;9.434;2022-10-31T11:54:54;99855.13;;;18.29;73.45
16664;BME280;8445;51.270;9.434;2022-10-31T11:57:41;99858.72;;;18.37;74.51
16664;BME280;8445;51.270;9.434;2022-10-31T12:00:30;99843.72;;;18.45;72.75
16664;BME280;8445;51.270;9.434;2022-10-31T12:03:33;99846.97;;;18.57;68.82
16664;BME280;8445;51.270;9.434;2022-10-31T12:06:29;99839.72;;;18.75;72.19
16664;BME280;8445;51.270;9.434;2022-10-31T12:08:57;99840.91;;;18.81;75.62
16664;BME280;8445;51.270;9.434;2022-10-31T12:20:55;99826.94;;;19.30;71.97
16664;BME280;8445;51.270;9.434;2022-10-31T12:23:45;99819.56;;;19.32;71.88
16664;BME280;8445;51.270;9.434;2022-10-31T12:26:33;99813.88;;;19.35;71.89
16664;BME280;8445;51.270;9.434;2022-10-31T12:35:30;99797.78;;;19.35;73.42
16664;BME280;8445;51.270;9.434;2022-10-31T12:49:50;99780.06;;;19.84;70.25
16664;BME280;8445;51.270;9.434;2022-10-31T12:58:09;99763.56;;;20.53;72.83
16664;BME280;8445;51.270;9.434;2022-10-31T13:00:55;99752.38;;;20.73;72.24
16664;BME280;8445;51.270;9.434;2022-10-31T13:03:42;99742.97;;;20.85;66.05
16664;BME280;8445;51.270;9.434;2022-10-31T13:06:19;99745.97;;;20.91;70.67
16664;BME280;8445;51.270;9.434;2022-10-31T13:09:11;99733.53;;;20.90;67.15
16664;BME280;8445;51.270;9.434;2022-10-31T13:11:56;99734.50;;;20.97;72.36
16664;BME280;8445;51.270;9.434;2022-10-31T13:14:32;99731.13;;;21.03;72.08
16664;BME280;8445;51.270;9.434;2022-10-31T13:17:04;99732.50;;;20.99;72.27
16664;BME280;8445;51.270;9.434;2022-10-31T13:19:39;99724.47;;;20.91;69.91
16664;BME280;8445;51.270;9.434;2022-10-31T13:22:27;99724.00;;;20.87;68.11
16664;BME280;8445;51.270;9.434;2022-10-31T13:25:16;99719.13;;;20.82;69.90
16664;BME280;8445;51.270;9.434;2022-10-31T13:27:58;99721.31;;;20.87;72.79
16664;BME280;8445;51.270;9.434;2022-10-31T13:30:30;99714.25;;;20.86;72.79
16664;BME280;8445;51.270;9.434;2022-10-31T13:33:09;99716.72;;;20.96;69.12
16664;BME280;8445;51.270;9.434;2022-10-31T13:41:44;99717.00;;;21.01;68.56
16664;BME280;8445;51.270;9.434;2022-10-31T13:44:20;99713.66;;;20.99;71.19
16664;BME280;8445;51.270;9.434;2022-10-31T13:46:51;99705.75;;;20.97;71.73
16664;BME280;8445;51.270;9.434;2022-10-31T13:54:45;99709.72;;;20.78;65.95
16664;BME280;8445;51.270;9.434;2022-10-31T13:57:34;99708.16;;;20.52;68.79
16664;BME280;8445;51.270;9.434;2022-10-31T14:02:51;99686.41;;;20.22;70.84
16664;BME280;8445;51.270;9.434;2022-10-31T14:05:29;99681.88;;;20.23;69.86
16664;BME280;8445;51.270;9.434;2022-10-31T14:07:58;99675.31;;;20.25;72.23
16664;BME280;8445;51.270;9.434;2022-10-31T14:10:38;99674.97;;;20.28;71.13
16664;BME280;8445;51.270;9.434;2022-10-31T14:13:32;99675.81;;;20.29;68.91
16664;BME280;8445;51.270;9.434;2022-10-31T14:16:04;99670.63;;;20.19;70.77
16664;BME280;8445;51.270;9.434;2022-10-31T14:18:36;99669.78;;;20.19;69.91
16664;BME280;8445;51.270;9.434;2022-10-31T14:23:53;99665.78;;;20.06;69.03
16664;BME280;8445;51.270;9.434;2022-10-31T14:29:41;99655.59;;;19.93;69.94
16664;BME280;8445;51.270;9.434;2022-10-31T14:34:53;99652.91;;;19.77;68.87
16664;BME280;8445;51.270;9.434;2022-10-31T14:40:26;99648.56;;;19.59;67.93
16664;BME280;8445;51.270;9.434;2022-10-31T14:48:48;99637.50;;;19.29;68.34
16664;BME280;8445;51.270;9.434;2022-10-31T14:51:22;99631.78;;;19.16;69.21
16664;BME280;8445;51.270;9.434;2022-10-31T14:53:55;99631.97;;;19.06;69.67
16664;BME280;8445;51.270;9.434;2022-10-31T14:56:27;99624.06;;;18.96;69.59
16664;BME280;8445;51.270;9.434;2022-10-31T14:58:59;99621.66;;;18.85;69.45
16664;BME280;8445;51.270;9.434;2022-10-31T15:01:38;99615.44;;;18.76;69.49
16664;BME280;8445;51.270;9.434;2022-10-31T15:06:47;99608.19;;;18.51;69.63
16664;BME280;8445;51.270;9.434;2022-10-31T15:09:33;99611.00;;;18.42;69.82
16664;BME280;8445;51.270;9.434;2022-10-31T15:12:05;99605.41;;;18.27;70.58
16664;BME280;8445;51.270;9.434;2022-10-31T15:14:42;99615.13;;;18.19;70.39
16664;BME280;8445;51.270;9.434;2022-10-31T15:17:11;99610.41;;;18.13;70.74
16664;BME280;8445;51.270;9.434;2022-10-31T15:19:37;99614.72;;;18.06;70.66
16664;BME280;8445;51.270;9.434;2022-10-31T15:22:04;99615.34;;;18.00;70.80
16664;BME280;8445;51.270;9.434;2022-10-31T15:24:36;99597.38;;;17.92;70.70
16664;BME280;8445;51.270;9.434;2022-10-31T15:27:03;99604.19;;;17.86;70.42
16664;BME280;8445;51.270;9.434;2022-10-31T15:29:29;99594.44;;;17.77;70.65
16664;BME280;8445;51.270;9.434;2022-10-31T15:31:58;99595.06;;;17.71;70.64
16664;BME280;8445;51.270;9.434;2022-10-31T15:34:37;99597.06;;;17.69;70.83
16664;BME280;8445;51.270;9.434;2022-10-31T15:37:05;99592.69;;;17.59;70.98
16664;BME280;8445;51.270;9.434;2022-10-31T15:39:35;99589.63;;;17.54;70.98
16664;BME280;8445;51.270;9.434;2022-10-31T15:42:01;99587.22;;;17.43;71.02
16664;BME280;8445;51.270;9.434;2022-10-31T15:44:35;99593.84;;;17.39;71.07
16664;BME280;8445;51.270;9.434;2022-10-31T15:47:06;99573.03;;;17.24;71.21
16664;BME280;8445;51.270;9.434;2022-10-31T15:49:48;99577.91;;;17.29;71.31
16664;BME280;8445;51.270;9.434;2022-10-31T15:52:32;99583.72;;;17.24;71.16
16664;BME280;8445;51.270;9.434;2022-10-31T15:57:46;99575.91;;;17.04;71.21
16664;BME280;8445;51.270;9.434;2022-10-31T16:00:35;99575.50;;;16.99;71.41